Time;durP1;ratioP1;P1;durP2;ratioP2;P2;SDS_P1;SDS_P2;PMS_P1;PMS_P2;Temp;Humidity;BMP_temperature;BMP_pressure;BME280_temperature;BME280_humidity;BME280_pressure;Samples;Min_cycle;Max_cycle;Signal;HPM_P1;HPM_P2
2023/04/07 00:00:17;;;;;;;22.27;11.13;;;8.00;99.90;;;;;;4855948;29;20345;-63
2023/04/07 00:02:45;;;;;;;19.90;10.43;;;8.00;99.90;;;;;;4852840;29;20220;-63
2023/04/07 00:05:14;;;;;;;16.73;10.10;;;8.00;99.90;;;;;;4857493;29;20314;-63
2023/04/07 00:07:42;;;;;;;18.53;9.77;;;7.90;99.90;;;;;;4851487;29;20238;-63
2023/04/07 00:10:25;;;;;;;14.33;9.87;;;7.90;99.90;;;;;;4852762;29;20207;-63
2023/04/07 00:12:53;;;;;;;19.43;9.33;;;7.90;99.90;;;;;;4851486;29;20226;-62
2023/04/07 00:15:22;;;;;;;18.93;9.37;;;7.90;99.90;;;;;;4854978;29;20238;-62
2023/04/07 00:17:50;;;;;;;25.40;9.70;;;7.90;99.90;;;;;;4853053;29;20286;-62
2023/04/07 00:20:18;;;;;;;20.93;8.90;;;7.90;99.90;;;;;;4852582;29;20278;-62
2023/04/07 00:22:47;;;;;;;18.70;8.97;;;7.90;99.90;;;;;;4853322;29;20646;-62
2023/04/07 00:25:17;;;;;;;16.23;8.77;;;7.90;99.90;;;;;;4859711;29;20195;-62
2023/04/07 00:27:47;;;;;;;19.47;8.47;;;8.00;99.90;;;;;;4853206;29;20243;-62
2023/04/07 00:30:16;;;;;;;10.63;8.03;;;8.00;99.90;;;;;;4853782;29;20219;-62
2023/04/07 00:32:44;;;;;;;12.60;7.27;;;8.00;99.90;;;;;;4855424;29;20227;-62
2023/04/07 00:35:13;;;;;;;15.50;7.10;;;8.00;99.90;;;;;;4858085;29;20317;-62
2023/04/07 00:37:41;;;;;;;12.03;6.20;;;8.00;99.90;;;;;;4855230;29;20251;-61
2023/04/07 00:40:10;;;;;;;12.83;5.57;;;8.00;99.90;;;;;;4856470;29;20199;-62
2023/04/07 00:42:38;;;;;;;11.10;5.20;;;8.00;99.90;;;;;;4857607;29;20236;-62
2023/04/07 00:45:10;;;;;;;9.73;5.83;;;8.00;99.90;;;;;;4859150;29;20623;-62
2023/04/07 00:47:38;;;;;;;9.93;5.20;;;8.00;99.90;;;;;;4856051;29;20299;-62
2023/04/07 00:50:08;;;;;;;12.60;5.30;;;8.00;99.90;;;;;;4853712;29;20750;-62
2023/04/07 00:52:36;;;;;;;16.37;6.07;;;8.00;99.90;;;;;;4851646;29;20188;-62
2023/04/07 00:55:05;;;;;;;12.57;5.17;;;8.00;99.90;;;;;;4856065;29;20584;-62
2023/04/07 00:57:33;;;;;;;13.57;5.27;;;8.00;99.90;;;;;;4858646;29;20703;-62
2023/04/07 01:00:03;;;;;;;13.23;5.17;;;8.00;99.90;;;;;;4849987;29;20250;-62
2023/04/07 01:02:40;;;;;;;9.77;4.93;;;8.00;99.90;;;;;;4854324;29;20266;-62
2023/04/07 01:05:16;;;;;;;8.10;5.23;;;8.00;99.90;;;;;;4858736;29;20313;-62
2023/04/07 01:07:55;;;;;;;8.77;5.00;;;8.00;99.90;;;;;;4839765;29;20195;-62
2023/04/07 01:10:33;;;;;;;5.07;4.53;;;8.00;99.90;;;;;;4853690;29;20351;-62
2023/04/07 01:13:06;;;;;;;10.30;5.27;;;8.00;99.90;;;;;;4853508;29;20902;-62
2023/04/07 01:15:35;;;;;;;7.63;4.80;;;8.00;99.90;;;;;;4838004;29;20219;-62
2023/04/07 01:18:11;;;;;;;10.70;5.20;;;8.00;99.90;;;;;;4855711;29;20219;-62
2023/04/07 01:20:43;;;;;;;13.80;5.73;;;8.00;99.90;;;;;;4836989;29;20255;-62
2023/04/07 01:23:22;;;;;;;12.80;5.23;;;8.00;99.90;;;;;;4855374;29;20292;-62
2023/04/07 01:26:04;;;;;;;11.60;5.03;;;8.00;99.90;;;;;;4857712;29;20232;-62
2023/04/07 01:28:44;;;;;;;10.67;5.33;;;8.00;99.90;;;;;;4856039;29;20203;-62
2023/04/07 01:31:15;;;;;;;9.90;4.50;;;8.00;99.90;;;;;;4858344;29;20227;-62
2023/04/07 01:33:46;;;;;;;8.30;5.00;;;8.00;99.90;;;;;;4838524;29;20622;-61
2023/04/07 01:36:15;;;;;;;8.10;4.57;;;8.00;99.90;;;;;;4853397;29;20227;-62
2023/04/07 01:38:45;;;;;;;9.50;4.63;;;8.00;99.90;;;;;;4854588;29;20757;-62
2023/04/07 01:41:15;;;;;;;11.47;4.83;;;8.00;99.90;;;;;;4857448;29;20223;-62
2023/04/07 01:43:45;;;;;;;6.67;4.70;;;7.90;99.90;;;;;;4851759;29;20640;-62
2023/04/07 01:46:15;;;;;;;12.63;4.60;;;7.90;99.90;;;;;;4857027;29;20294;-62
2023/04/07 01:48:44;;;;;;;11.40;5.47;;;7.90;99.90;;;;;;4856421;29;20236;-62
2023/04/07 01:51:16;;;;;;;10.93;4.80;;;8.00;99.90;;;;;;4856605;29;20615;-62
2023/04/07 01:53:45;;;;;;;14.77;5.27;;;7.90;99.90;;;;;;4855787;29;20288;-62
2023/04/07 01:56:13;;;;;;;6.90;5.10;;;7.90;99.90;;;;;;4858163;29;20258;-61
2023/04/07 01:58:41;;;;;;;9.60;5.30;;;7.90;99.90;;;;;;4858081;29;20259;-61
2023/04/07 02:01:10;;;;;;;8.37;4.93;;;7.90;99.90;;;;;;4856680;29;20267;-62
2023/04/07 02:03:45;;;;;;;10.80;5.00;;;7.90;99.90;;;;;;4855069;29;20314;-62
2023/04/07 02:06:19;;;;;;;11.33;5.50;;;7.90;99.90;;;;;;4857632;29;20226;-62
2023/04/07 02:08:50;;;;;;;13.30;5.67;;;7.90;99.90;;;;;;4855804;29;20222;-62
2023/04/07 02:11:21;;;;;;;8.30;5.50;;;7.80;99.90;;;;;;4853160;29;20235;-61
2023/04/07 02:13:52;;;;;;;7.80;5.63;;;7.80;99.90;;;;;;4855111;29;20627;-61
2023/04/07 02:16:22;;;;;;;10.83;5.97;;;7.80;99.90;;;;;;4856598;29;20587;-61
2023/04/07 02:18:52;;;;;;;12.50;6.10;;;7.80;99.90;;;;;;4849856;29;20224;-61
2023/04/07 02:21:21;;;;;;;10.97;6.10;;;7.80;99.90;;;;;;4852429;29;20233;-62
2023/04/07 02:23:51;;;;;;;12.83;6.37;;;7.80;99.90;;;;;;4852157;29;20292;-62
2023/04/07 02:26:20;;;;;;;9.57;5.90;;;7.80;99.90;;;;;;4835197;29;20620;-62
2023/04/07 02:28:48;;;;;;;11.60;6.10;;;7.80;99.90;;;;;;4854499;29;20192;-62
2023/04/07 02:31:16;;;;;;;12.63;6.97;;;7.80;99.90;;;;;;4855055;29;20240;-61
2023/04/07 02:33:45;;;;;;;11.03;6.77;;;7.80;99.90;;;;;;4853755;29;20283;-62
2023/04/07 02:36:14;;;;;;;15.43;7.13;;;7.80;99.90;;;;;;4850611;29;20235;-61
2023/04/07 02:38:42;;;;;;;12.97;7.63;;;7.80;99.90;;;;;;4853174;29;20271;-62
2023/04/07 02:41:11;;;;;;;13.00;7.70;;;7.80;99.90;;;;;;4854405;29;20270;-61
2023/04/07 02:43:41;;;;;;;14.47;7.90;;;7.80;99.90;;;;;;4849498;29;20192;-61
2023/04/07 02:46:09;;;;;;;11.87;7.77;;;7.80;99.90;;;;;;4854507;29;20227;-62
2023/04/07 02:48:37;;;;;;;16.03;8.03;;;7.80;99.90;;;;;;4858142;29;20238;-62
2023/04/07 02:51:05;;;;;;;13.17;8.20;;;7.80;99.90;;;;;;4857052;29;20219;-62
2023/04/07 02:53:35;;;;;;;16.80;8.57;;;7.80;99.90;;;;;;4846375;29;20247;-61
2023/04/07 02:56:04;;;;;;;18.57;8.23;;;7.80;99.90;;;;;;4855548;29;20734;-61
2023/04/07 02:58:32;;;;;;;14.03;8.50;;;7.80;99.90;;;;;;4857118;29;20611;-61
2023/04/07 03:01:01;;;;;;;15.97;9.10;;;7.80;99.90;;;;;;4853940;29;20579;-62
2023/04/07 03:03:29;;;;;;;13.43;9.13;;;7.80;99.90;;;;;;4851131;29;20684;-62
2023/04/07 03:05:58;;;;;;;18.30;9.50;;;7.80;99.90;;;;;;4855740;29;20718;-62
2023/04/07 03:08:26;;;;;;;17.73;9.03;;;7.70;99.90;;;;;;4856046;29;20220;-62
2023/04/07 03:10:56;;;;;;;16.70;10.07;;;7.70;99.90;;;;;;4852493;29;20231;-62
2023/04/07 03:13:24;;;;;;;17.37;9.80;;;7.70;99.90;;;;;;4856648;29;20263;-62
2023/04/07 03:15:52;;;;;;;15.53;9.77;;;7.70;99.90;;;;;;4855817;29;20231;-62
2023/04/07 03:18:20;;;;;;;22.63;10.87;;;7.70;99.90;;;;;;4853972;29;20293;-62
2023/04/07 03:20:49;;;;;;;18.33;10.27;;;7.70;99.90;;;;;;4852983;29;20230;-62
2023/04/07 03:23:17;;;;;;;18.67;10.77;;;7.70;99.90;;;;;;4853771;29;20869;-62
2023/04/07 03:25:48;;;;;;;20.67;11.13;;;7.70;99.90;;;;;;4853451;29;20202;-61
2023/04/07 03:28:18;;;;;;;24.33;11.77;;;7.70;99.90;;;;;;4854427;29;20204;-61
2023/04/07 03:30:46;;;;;;;22.63;11.60;;;7.60;99.90;;;;;;4854833;29;20321;-61
2023/04/07 03:33:15;;;;;;;22.63;11.87;;;7.60;99.90;;;;;;4849813;29;20303;-61
2023/04/07 03:35:45;;;;;;;20.63;11.90;;;7.60;99.90;;;;;;4852535;29;20631;-61
2023/04/07 03:38:13;;;;;;;23.27;12.87;;;7.60;99.90;;;;;;4854324;29;20223;-61
2023/04/07 03:40:41;;;;;;;29.87;12.80;;;7.60;99.90;;;;;;4851048;29;20738;-61
2023/04/07 03:43:12;;;;;;;26.30;13.80;;;7.50;99.90;;;;;;4855488;29;20303;-61
2023/04/07 03:45:42;;;;;;;25.90;12.67;;;7.50;99.90;;;;;;4855436;29;20280;-61
2023/04/07 03:48:11;;;;;;;27.80;13.83;;;7.50;99.90;;;;;;4852701;29;20227;-61
2023/04/07 03:50:40;;;;;;;30.30;14.77;;;7.50;99.90;;;;;;4851490;29;20223;-61
2023/04/07 03:53:09;;;;;;;30.07;15.00;;;7.50;99.90;;;;;;4852247;29;20231;-61
2023/04/07 03:55:37;;;;;;;31.70;14.70;;;7.40;99.90;;;;;;4853705;29;20282;-60
2023/04/07 03:58:06;;;;;;;29.63;15.23;;;7.40;99.90;;;;;;4855179;29;20223;-61
2023/04/07 04:00:34;;;;;;;28.67;15.60;;;7.40;99.90;;;;;;4853358;29;20239;-60
2023/04/07 04:03:04;;;;;;;31.37;14.87;;;7.40;99.90;;;;;;4856740;29;20255;-61
2023/04/07 04:05:32;;;;;;;32.00;15.47;;;7.40;99.90;;;;;;4852096;29;20224;-61
2023/04/07 04:08:01;;;;;;;33.93;16.00;;;7.40;99.90;;;;;;4852831;29;20559;-61
2023/04/07 04:10:29;;;;;;;33.10;16.73;;;7.30;99.90;;;;;;4853902;29;20239;-61
2023/04/07 04:12:59;;;;;;;38.50;17.23;;;7.30;99.90;;;;;;4851899;29;20702;-61
2023/04/07 04:15:28;;;;;;;43.27;17.50;;;7.20;99.90;;;;;;4856051;29;20223;-61
2023/04/07 04:17:56;;;;;;;47.83;17.80;;;7.20;99.90;;;;;;4852139;29;20223;-61
2023/04/07 04:20:25;;;;;;;36.87;17.13;;;7.10;99.90;;;;;;4851493;29;20354;-61
2023/04/07 04:22:54;;;;;;;35.47;17.57;;;7.10;99.90;;;;;;4854498;29;20204;-61
2023/04/07 04:25:22;;;;;;;40.43;18.27;;;7.10;99.90;;;;;;4854844;29;20199;-61
2023/04/07 04:27:50;;;;;;;38.77;17.70;;;7.10;99.90;;;;;;4851975;29;20232;-61
2023/04/07 04:30:19;;;;;;;39.07;18.37;;;7.00;99.90;;;;;;4855971;29;20679;-61
2023/04/07 04:32:48;;;;;;;38.07;18.40;;;7.00;99.90;;;;;;4852684;29;20235;-61
2023/04/07 04:35:16;;;;;;;39.97;19.67;;;7.00;99.90;;;;;;4853281;29;20223;-61
2023/04/07 04:37:46;;;;;;;41.07;19.77;;;6.90;99.90;;;;;;4851623;29;20203;-61
2023/04/07 04:40:14;;;;;;;41.30;19.47;;;6.90;99.90;;;;;;4852101;29;20234;-61
2023/04/07 04:42:42;;;;;;;43.37;19.93;;;6.80;99.90;;;;;;4853500;29;20227;-61
2023/04/07 04:45:11;;;;;;;48.87;20.73;;;6.80;99.90;;;;;;4846111;29;20235;-61
2023/04/07 04:47:40;;;;;;;43.07;20.30;;;6.70;99.90;;;;;;4847565;29;20223;-61
2023/04/07 04:50:09;;;;;;;43.33;19.90;;;6.60;99.90;;;;;;4853035;29;20275;-61
2023/04/07 04:52:38;;;;;;;47.20;20.83;;;6.60;99.90;;;;;;4853324;29;20207;-60
2023/04/07 04:55:08;;;;;;;43.17;20.63;;;6.60;99.90;;;;;;4853417;29;20227;-61
2023/04/07 04:57:37;;;;;;;52.07;20.63;;;6.50;99.90;;;;;;4854864;29;20299;-61
2023/04/07 05:00:06;;;;;;;44.33;21.20;;;6.50;99.90;;;;;;4852596;29;20238;-61
2023/04/07 05:02:35;;;;;;;50.93;21.53;;;6.50;99.90;;;;;;4850971;29;20311;-61
2023/04/07 05:05:03;;;;;;;51.67;23.40;;;6.40;99.90;;;;;;4852935;29;20283;-61
2023/04/07 05:07:32;;;;;;;48.73;22.47;;;6.40;99.90;;;;;;4853513;29;20236;-61
2023/04/07 05:10:00;;;;;;;54.63;23.13;;;6.40;99.90;;;;;;4853187;29;20251;-61
2023/04/07 05:12:30;;;;;;;54.63;22.87;;;6.30;99.90;;;;;;4840874;29;20227;-61
2023/04/07 05:14:59;;;;;;;55.13;23.77;;;6.30;99.90;;;;;;4857036;29;20235;-61
2023/04/07 05:17:27;;;;;;;55.93;23.33;;;6.40;99.90;;;;;;4838993;29;20848;-61
2023/04/07 05:19:56;;;;;;;74.83;28.43;;;6.40;99.90;;;;;;4855534;29;20243;-61
2023/04/07 05:22:25;;;;;;;87.17;30.87;;;6.50;99.90;;;;;;4858175;29;20200;-61
2023/04/07 05:24:53;;;;;;;69.97;30.63;;;6.50;99.90;;;;;;4857883;29;20230;-61
2023/04/07 05:27:21;;;;;;;86.03;35.90;;;6.60;99.90;;;;;;4854613;29;20277;-61
2023/04/07 05:29:50;;;;;;;86.00;36.50;;;6.60;99.90;;;;;;4857387;29;20230;-61
2023/04/07 05:32:19;;;;;;;72.37;31.13;;;6.50;99.90;;;;;;4853755;29;20307;-61
2023/04/07 05:34:47;;;;;;;76.77;30.27;;;6.60;99.90;;;;;;4856086;29;20199;-61
2023/04/07 05:37:15;;;;;;;72.47;29.97;;;6.60;99.90;;;;;;4858772;29;20261;-61
2023/04/07 05:39:44;;;;;;;66.50;28.47;;;6.60;99.90;;;;;;4855107;29;20232;-61
2023/04/07 05:42:12;;;;;;;81.57;30.83;;;6.60;99.90;;;;;;4857336;29;20242;-61
2023/04/07 05:44:40;;;;;;;67.27;29.33;;;6.60;99.90;;;;;;4853363;29;20728;-61
2023/04/07 05:47:10;;;;;;;60.23;27.83;;;6.60;99.90;;;;;;4855590;29;20238;-61
2023/04/07 05:49:44;;;;;;;74.57;31.13;;;6.70;99.90;;;;;;4855321;29;20215;-60
2023/04/07 05:52:13;;;;;;;71.20;33.47;;;6.80;99.90;;;;;;4853913;29;20203;-61
2023/04/07 05:54:41;;;;;;;71.70;31.10;;;6.90;99.90;;;;;;4852128;29;20310;-61
2023/04/07 05:57:10;;;;;;;74.13;31.27;;;7.00;99.90;;;;;;4856466;29;20259;-61
2023/04/07 05:59:38;;;;;;;75.87;31.10;;;7.10;99.90;;;;;;4856675;29;20226;-61
2023/04/07 06:02:06;;;;;;;78.53;34.23;;;7.10;99.90;;;;;;4854611;29;20648;-61
2023/04/07 06:04:38;;;;;;;72.43;31.17;;;7.10;99.90;;;;;;4856888;29;20195;-60
2023/04/07 06:07:07;;;;;;;64.30;28.63;;;7.20;99.90;;;;;;4855372;29;20192;-61
2023/04/07 06:09:35;;;;;;;58.43;26.53;;;7.30;99.90;;;;;;4855059;29;20224;-61
2023/04/07 06:12:05;;;;;;;64.90;28.40;;;7.40;99.90;;;;;;4850615;29;20227;-61
2023/04/07 06:14:33;;;;;;;77.70;33.63;;;7.50;99.90;;;;;;4853274;29;20250;-61
2023/04/07 06:17:02;;;;;;;75.40;33.80;;;7.60;99.90;;;;;;4856950;29;20268;-61
2023/04/07 06:19:30;;;;;;;58.33;26.40;;;7.70;99.90;;;;;;4854842;29;20239;-61
2023/04/07 06:21:59;;;;;;;58.40;26.53;;;7.90;99.90;;;;;;4854541;29;20231;-61
2023/04/07 06:24:27;;;;;;;60.93;26.83;;;8.10;99.90;;;;;;4854606;29;20231;-62
2023/04/07 06:26:56;;;;;;;59.60;27.43;;;8.30;99.90;;;;;;4849760;29;20721;-62
2023/04/07 06:29:25;;;;;;;57.60;26.07;;;8.40;99.90;;;;;;4854299;29;20646;-61
2023/04/07 06:31:53;;;;;;;51.57;23.67;;;8.40;99.90;;;;;;4853186;29;20203;-61
2023/04/07 06:34:21;;;;;;;45.20;22.33;;;8.30;99.90;;;;;;4853711;29;20203;-62
2023/04/07 06:36:49;;;;;;;36.90;20.63;;;8.30;99.90;;;;;;4855001;29;20286;-62
2023/04/07 06:39:20;;;;;;;39.47;19.50;;;8.30;99.90;;;;;;4857580;29;20690;-62
2023/04/07 06:41:48;;;;;;;35.43;18.33;;;8.30;99.90;;;;;;4853760;29;20646;-62
2023/04/07 06:44:16;;;;;;;35.83;18.33;;;8.30;99.90;;;;;;4852036;29;20264;-62
2023/04/07 06:46:46;;;;;;;37.87;19.13;;;8.30;99.90;;;;;;4858675;29;22341;-61
2023/04/07 06:49:15;;;;;;;29.43;17.70;;;8.30;99.90;;;;;;4857012;29;20217;-62
2023/04/07 06:51:43;;;;;;;33.77;18.03;;;8.30;99.90;;;;;;4852896;29;20713;-62
2023/04/07 06:54:13;;;;;;;34.70;18.17;;;8.30;99.90;;;;;;4856736;29;20275;-62
2023/04/07 06:56:44;;;;;;;35.93;19.10;;;8.40;99.90;;;;;;4855680;29;20628;-62
2023/04/07 06:59:13;;;;;;;34.17;17.63;;;8.50;99.90;;;;;;4855598;29;20261;-62
2023/04/07 07:01:42;;;;;;;39.13;19.20;;;8.60;99.90;;;;;;4855813;29;20227;-62
2023/04/07 07:04:10;;;;;;;38.53;19.13;;;8.60;99.90;;;;;;4856241;29;20251;-62
2023/04/07 07:06:40;;;;;;;41.90;19.33;;;8.60;99.90;;;;;;4852157;29;20227;-62
2023/04/07 07:09:08;;;;;;;38.47;18.87;;;8.60;99.90;;;;;;4854012;29;20224;-62
2023/04/07 07:11:37;;;;;;;37.87;18.67;;;8.60;99.90;;;;;;4851259;29;20579;-62
2023/04/07 07:14:06;;;;;;;31.60;17.13;;;8.70;99.90;;;;;;4848745;29;20276;-62
2023/04/07 07:16:36;;;;;;;31.23;16.43;;;8.70;99.90;;;;;;4853333;29;20204;-59
2023/04/07 07:19:04;;;;;;;37.03;16.93;;;8.70;99.90;;;;;;4835622;29;20306;-62
2023/04/07 07:21:32;;;;;;;36.97;17.87;;;8.70;99.90;;;;;;4852895;29;20540;-62
2023/04/07 07:24:01;;;;;;;32.40;17.10;;;8.70;99.90;;;;;;4856151;29;20272;-62
2023/04/07 07:26:29;;;;;;;34.90;16.67;;;8.70;99.90;;;;;;4847789;29;20280;-62
2023/04/07 07:28:57;;;;;;;33.37;15.87;;;8.70;99.90;;;;;;4851349;29;20299;-62
2023/04/07 07:31:27;;;;;;;26.77;15.27;;;8.70;99.90;;;;;;4856703;29;20229;-62
2023/04/07 07:33:55;;;;;;;30.23;16.73;;;8.70;99.90;;;;;;4858577;29;20231;-61
2023/04/07 07:36:23;;;;;;;35.63;17.17;;;8.70;99.90;;;;;;4854697;29;20288;-62
2023/04/07 07:38:52;;;;;;;29.73;16.97;;;8.70;99.90;;;;;;4854356;29;20216;-62
2023/04/07 07:41:20;;;;;;;33.83;17.77;;;8.80;99.90;;;;;;4855439;29;20227;-61
2023/04/07 07:43:49;;;;;;;32.77;16.33;;;8.90;99.90;;;;;;4836844;29;20256;-62
2023/04/07 07:46:17;;;;;;;36.37;16.27;;;8.90;99.90;;;;;;4853242;29;20236;-62
2023/04/07 07:48:47;;;;;;;29.00;16.07;;;8.90;99.90;;;;;;4853465;29;20238;-62
2023/04/07 07:51:15;;;;;;;29.33;15.17;;;9.00;99.90;;;;;;4853355;29;20258;-62
2023/04/07 07:53:43;;;;;;;30.57;14.90;;;9.00;99.90;;;;;;4853136;29;20271;-62
2023/04/07 07:56:11;;;;;;;31.17;15.37;;;9.00;99.90;;;;;;4853200;29;20228;-62
2023/04/07 07:58:40;;;;;;;28.07;13.80;;;9.00;99.90;;;;;;4851232;29;20219;-61
2023/04/07 08:01:08;;;;;;;26.47;14.07;;;9.00;99.90;;;;;;4854278;29;20265;-62
2023/04/07 08:03:36;;;;;;;23.67;14.33;;;9.00;99.90;;;;;;4850294;29;21784;-62
2023/04/07 08:06:08;;;;;;;23.33;12.63;;;9.10;99.90;;;;;;4853235;29;20235;-62
2023/04/07 08:08:36;;;;;;;23.57;13.67;;;9.30;99.90;;;;;;4852063;29;20219;-62
2023/04/07 08:11:04;;;;;;;21.37;12.47;;;9.60;99.90;;;;;;4852562;29;20779;-62
2023/04/07 08:13:33;;;;;;;20.63;12.37;;;10.20;99.90;;;;;;4855328;29;20718;-62
2023/04/07 08:16:02;;;;;;;14.37;9.90;;;10.60;99.90;;;;;;4853432;29;20260;-62
2023/04/07 08:18:30;;;;;;;17.73;9.70;;;10.70;99.90;;;;;;4852262;29;20667;-62
2023/04/07 08:20:58;;;;;;;14.03;9.23;;;10.80;99.90;;;;;;4852601;29;20231;-62
2023/04/07 08:23:28;;;;;;;17.57;9.67;;;11.10;99.90;;;;;;4854365;29;20234;-62
2023/04/07 08:25:56;;;;;;;13.33;8.70;;;11.60;99.90;;;;;;4853258;29;20288;-62
2023/04/07 08:28:25;;;;;;;10.23;8.17;;;12.10;99.90;;;;;;4852767;29;20207;-62
2023/04/07 08:30:53;;;;;;;10.87;7.17;;;12.50;99.90;;;;;;4852802;29;20228;-62
2023/04/07 08:33:22;;;;;;;9.57;6.70;;;12.70;99.90;;;;;;4856510;29;20280;-62
2023/04/07 08:35:50;;;;;;;7.17;6.43;;;12.50;99.90;;;;;;4854218;29;20307;-62
2023/04/07 08:38:18;;;;;;;12.57;7.10;;;12.10;99.90;;;;;;4854451;29;20249;-62
2023/04/07 08:40:50;;;;;;;8.07;5.77;;;11.70;99.90;;;;;;4850631;29;20277;-62
2023/04/07 08:43:20;;;;;;;8.27;5.53;;;11.40;99.90;;;;;;4858411;29;20195;-62
2023/04/07 08:45:49;;;;;;;9.80;5.97;;;11.10;99.90;;;;;;4858342;29;20287;-62
2023/04/07 08:48:25;;;;;;;7.90;5.53;;;10.80;99.90;;;;;;4859064;29;20338;-62
2023/04/07 08:50:54;;;;;;;6.77;5.03;;;10.60;99.90;;;;;;4858095;29;20234;-62
2023/04/07 08:53:28;;;;;;;12.10;6.00;;;10.40;99.90;;;;;;4860478;29;20234;-62
2023/04/07 08:55:58;;;;;;;6.50;5.60;;;10.30;99.90;;;;;;4860012;29;20235;-62
2023/04/07 08:58:28;;;;;;;6.63;5.93;;;10.30;99.90;;;;;;4858198;29;20207;-62
2023/04/07 09:00:56;;;;;;;8.80;5.93;;;10.30;99.90;;;;;;4855903;29;20231;-62
2023/04/07 09:03:26;;;;;;;9.77;6.77;;;10.40;99.90;;;;;;4855160;29;20263;-62
2023/04/07 09:05:56;;;;;;;9.53;6.20;;;10.40;99.90;;;;;;4855043;29;20561;-62
2023/04/07 09:08:24;;;;;;;8.93;7.00;;;10.50;99.90;;;;;;4856555;29;20223;-62
2023/04/07 09:10:53;;;;;;;9.23;6.93;;;10.60;99.90;;;;;;4854387;29;20246;-62
2023/04/07 09:13:24;;;;;;;11.83;6.90;;;10.70;99.90;;;;;;4851160;29;20203;-62
2023/04/07 09:15:52;;;;;;;11.33;6.70;;;10.90;99.90;;;;;;4856338;29;20223;-62
2023/04/07 09:18:20;;;;;;;6.17;5.60;;;11.20;99.90;;;;;;4854490;29;20433;-62
2023/04/07 09:20:56;;;;;;;8.67;5.57;;;11.50;99.90;;;;;;4851785;29;20616;-62
2023/04/07 09:23:29;;;;;;;12.60;5.40;;;11.70;99.90;;;;;;4853092;29;20242;-62
2023/04/07 09:25:59;;;;;;;9.50;5.20;;;11.80;99.90;;;;;;4850660;29;20239;-62
2023/04/07 09:28:41;;;;;;;8.10;5.13;;;11.80;99.90;;;;;;4857313;29;20278;-62
2023/04/07 09:31:09;;;;;;;8.60;5.80;;;11.70;99.90;;;;;;4855378;29;20273;-62
2023/04/07 09:33:38;;;;;;;7.03;6.40;;;11.60;99.90;;;;;;4857068;29;20220;-62
2023/04/07 09:36:07;;;;;;;12.93;8.00;;;11.60;99.90;;;;;;4856490;29;20227;-62
2023/04/07 09:38:36;;;;;;;15.63;8.07;;;11.50;99.90;;;;;;4858910;29;20235;-62
2023/04/07 09:41:09;;;;;;;18.67;9.30;;;11.40;99.90;;;;;;4856608;29;20255;-62
2023/04/07 09:43:40;;;;;;;18.73;9.07;;;11.40;99.90;;;;;;4856050;29;20197;-62
2023/04/07 09:46:13;;;;;;;20.67;9.23;;;11.30;99.90;;;;;;4856162;29;20651;-62
2023/04/07 09:48:42;;;;;;;18.87;9.73;;;11.40;99.90;;;;;;4854881;29;20219;-62
2023/04/07 09:51:12;;;;;;;16.37;8.27;;;11.50;99.90;;;;;;4856831;29;20251;-62
2023/04/07 09:53:46;;;;;;;18.27;8.23;;;11.60;99.90;;;;;;4840116;29;20239;-62
2023/04/07 09:56:16;;;;;;;17.40;7.50;;;11.90;99.90;;;;;;4855981;29;20226;-62
2023/04/07 09:58:47;;;;;;;18.80;8.40;;;12.20;99.90;;;;;;4858478;29;20239;-62
2023/04/07 10:01:16;;;;;;;22.83;7.80;;;12.50;99.90;;;;;;4855342;29;20291;-62
2023/04/07 10:03:46;;;;;;;18.37;7.97;;;12.90;99.90;;;;;;4857024;29;20235;-62
2023/04/07 10:06:16;;;;;;;29.47;10.33;;;13.20;99.90;;;;;;4855899;29;20236;-62
2023/04/07 10:08:45;;;;;;;19.30;8.07;;;13.20;99.90;;;;;;4855221;29;20230;-62
2023/04/07 10:11:15;;;;;;;10.23;5.40;;;13.10;99.90;;;;;;4854886;29;20859;-62
2023/04/07 10:13:45;;;;;;;12.20;5.47;;;12.90;99.90;;;;;;4852176;29;20227;-62
2023/04/07 10:16:15;;;;;;;7.57;4.20;;;13.40;99.90;;;;;;4854107;29;20667;-63
2023/04/07 10:18:45;;;;;;;7.40;3.10;;;14.90;99.90;;;;;;4851804;29;20331;-63
2023/04/07 10:21:15;;;;;;;14.87;5.97;;;16.40;99.90;;;;;;4852949;29;20290;-63
2023/04/07 10:23:56;;;;;;;13.67;5.50;;;16.90;99.90;;;;;;4854182;29;20227;-63
2023/04/07 10:26:30;;;;;;;9.30;4.33;;;16.50;99.90;;;;;;4858194;29;20234;-62
2023/04/07 10:29:04;;;;;;;12.67;5.17;;;15.70;99.90;;;;;;4852090;29;20227;-63
2023/04/07 10:31:32;;;;;;;15.20;5.70;;;15.00;99.90;;;;;;4854921;29;20223;-62
2023/04/07 10:34:01;;;;;;;19.37;7.83;;;14.50;99.90;;;;;;4855935;29;20235;-62
2023/04/07 10:36:29;;;;;;;18.97;7.77;;;14.00;99.90;;;;;;4856553;29;20861;-62
2023/04/07 10:39:20;;;;;;;20.53;7.13;;;13.50;99.90;;;;;;4840879;29;20280;-62
2023/04/07 10:41:50;;;;;;;35.37;10.97;;;13.10;99.90;;;;;;4856114;29;20223;-62
2023/04/07 10:44:50;;;;;;;24.20;8.00;;;12.80;99.90;;;;;;4854877;29;20261;-62
2023/04/07 10:47:19;;;;;;;18.03;6.00;;;12.70;99.90;;;;;;4854155;29;20224;-62
2023/04/07 10:50:19;;;;;;;7.47;4.00;;;12.70;99.90;;;;;;4852003;29;20543;-62
2023/04/07 10:52:48;;;;;;;13.70;5.53;;;12.70;99.90;;;;;;4848540;29;20212;-62
2023/04/07 10:55:37;;;;;;;9.00;4.20;;;12.70;99.90;;;;;;4853287;29;20248;-62
2023/04/07 10:58:24;;;;;;;7.57;3.83;;;12.70;99.90;;;;;;4855149;29;20231;-62
2023/04/07 11:01:20;;;;;;;6.77;3.27;;;12.70;99.90;;;;;;4851244;29;20607;-62
2023/04/07 11:04:00;;;;;;;6.73;3.07;;;12.90;99.90;;;;;;4847406;29;20267;-62
2023/04/07 11:06:28;;;;;;;9.33;2.90;;;13.20;99.90;;;;;;4852647;29;20237;-62
2023/04/07 11:08:57;;;;;;;28.80;7.43;;;13.40;99.90;;;;;;4853804;29;20314;-62
2023/04/07 11:11:40;;;;;;;50.77;14.00;;;13.60;99.90;;;;;;4851200;29;20291;-62
2023/04/07 11:14:11;;;;;;;52.70;13.07;;;13.70;99.90;;;;;;4853612;29;20247;-62
2023/04/07 11:16:44;;;;;;;51.57;12.60;;;13.60;99.90;;;;;;4850137;29;20277;-61
2023/04/07 11:19:12;;;;;;;34.03;8.90;;;13.60;99.90;;;;;;4853375;29;20248;-62
2023/04/07 11:21:40;;;;;;;26.63;7.27;;;13.40;99.90;;;;;;4847432;29;20231;-62
2023/04/07 11:24:08;;;;;;;11.40;3.90;;;13.30;99.90;;;;;;4850067;29;20273;-62
2023/04/07 11:26:41;;;;;;;6.37;2.30;;;12.90;99.90;;;;;;4849931;29;20250;-62
2023/04/07 11:29:11;;;;;;;3.40;2.40;;;12.50;99.90;;;;;;4851841;29;20283;-62
2023/04/07 11:31:47;;;;;;;19.27;4.97;;;12.40;99.90;;;;;;4857023;29;20248;-61
2023/04/07 11:34:15;;;;;;;27.87;6.87;;;12.30;99.90;;;;;;4854117;29;20642;-62
2023/04/07 11:36:44;;;;;;;34.87;8.20;;;12.10;99.90;;;;;;4852333;29;20231;-62
2023/04/07 11:39:20;;;;;;;36.67;9.43;;;12.00;99.90;;;;;;4854558;29;20612;-62
2023/04/07 11:41:49;;;;;;;40.63;10.20;;;12.00;99.90;;;;;;4851441;29;20279;-62
2023/04/07 11:44:18;;;;;;;25.77;7.30;;;11.90;99.90;;;;;;4849664;29;20656;-62
2023/04/07 11:46:54;;;;;;;20.87;5.50;;;11.90;99.90;;;;;;4850392;29;20707;-62
2023/04/07 11:49:24;;;;;;;17.73;5.00;;;11.90;99.90;;;;;;4853089;29;20286;-62
2023/04/07 11:51:59;;;;;;;24.47;7.47;;;11.90;99.90;;;;;;4852330;29;20244;-62
2023/04/07 11:54:38;;;;;;;31.50;8.07;;;11.90;99.90;;;;;;4850013;29;20291;-62
2023/04/07 11:57:09;;;;;;;37.83;9.93;;;12.00;99.90;;;;;;4851338;29;20235;-62
2023/04/07 11:59:37;;;;;;;43.97;10.57;;;12.00;99.90;;;;;;4836202;29;20276;-62
2023/04/07 12:02:07;;;;;;;39.03;10.13;;;12.00;99.90;;;;;;4852216;29;20266;-62
2023/04/07 12:04:36;;;;;;;45.07;11.57;;;12.10;99.90;;;;;;4848056;29;20212;-61
2023/04/07 12:07:09;;;;;;;42.00;11.47;;;12.10;99.90;;;;;;4849241;29;20207;-62
2023/04/07 12:09:38;;;;;;;48.53;11.83;;;12.10;99.90;;;;;;4849841;29;20230;-62
2023/04/07 12:12:08;;;;;;;52.67;14.27;;;12.20;99.90;;;;;;4846088;29;20272;-62
2023/04/07 12:14:37;;;;;;;51.60;14.40;;;12.20;99.90;;;;;;4834426;29;20304;-62
2023/04/07 12:17:08;;;;;;;55.00;13.70;;;12.30;99.90;;;;;;4846873;29;20232;-62
2023/04/07 12:19:38;;;;;;;57.90;13.07;;;12.40;99.90;;;;;;4829601;29;20252;-62
2023/04/07 12:22:06;;;;;;;54.17;13.83;;;12.50;99.90;;;;;;4852130;29;20943;-62
2023/04/07 12:24:35;;;;;;;50.23;13.00;;;12.70;99.90;;;;;;4857073;29;20583;-62
2023/04/07 12:27:03;;;;;;;53.80;13.93;;;12.80;99.90;;;;;;4837676;29;20227;-62
2023/04/07 12:29:32;;;;;;;60.63;14.83;;;12.90;99.90;;;;;;4853411;29;20223;-62
2023/04/07 12:32:00;;;;;;;58.60;15.13;;;13.00;99.90;;;;;;4853078;29;20618;-62
2023/04/07 12:34:30;;;;;;;66.67;16.60;;;13.10;99.90;;;;;;4854351;29;20201;-62
2023/04/07 12:36:58;;;;;;;49.13;13.50;;;13.10;99.90;;;;;;4857150;29;20239;-62
2023/04/07 12:39:27;;;;;;;68.87;15.23;;;13.10;99.90;;;;;;4854477;29;20246;-62
2023/04/07 12:41:57;;;;;;;61.57;13.97;;;13.00;99.90;;;;;;4854102;29;20238;-62
2023/04/07 12:44:25;;;;;;;33.70;9.43;;;12.90;99.90;;;;;;4853056;29;20440;-62
2023/04/07 12:46:53;;;;;;;9.33;4.30;;;12.80;99.90;;;;;;4849425;29;20231;-62
2023/04/07 12:49:21;;;;;;;19.80;6.43;;;12.50;99.90;;;;;;4853164;29;20287;-62
2023/04/07 12:51:51;;;;;;;19.90;5.23;;;12.20;99.90;;;;;;4850074;29;20776;-62
2023/04/07 12:54:19;;;;;;;11.53;3.97;;;11.90;99.90;;;;;;4852522;29;20678;-62